createdAt,value
2022-09-27T00:04:07.136Z,9.27
2022-09-27T00:09:12.592Z,9.38
2022-09-27T00:14:17.692Z,9.73
2022-09-27T00:19:23.932Z,11.90
2022-09-27T00:24:29.428Z,10.90
2022-09-27T00:29:33.447Z,10.53
2022-09-27T00:34:37.467Z,12.15
2022-09-27T00:39:43.167Z,12.35
2022-09-27T00:45:06.118Z,12.47
2022-09-27T00:50:16.195Z,10.98
2022-09-27T00:55:25.411Z,12.43
2022-09-27T01:00:29.315Z,13.52
2022-09-27T01:05:33.456Z,14.32
2022-09-27T01:10:42.706Z,14.55
2022-09-27T01:15:50.820Z,17.48
2022-09-27T01:21:19.839Z,17.75
2022-09-27T01:26:34.524Z,18.88
2022-09-27T01:31:43.847Z,21.23
2022-09-27T01:36:55.306Z,22.08
2022-09-27T01:42:04.579Z,24.63
2022-09-27T01:47:19.789Z,22.58
2022-09-27T01:52:42.571Z,22.23
2022-09-27T01:57:51.628Z,21.98
2022-09-27T02:03:07.576Z,24.70
2022-09-27T02:08:22.772Z,24.35
2022-09-27T02:13:36.428Z,21.50
2022-09-27T02:19:08.480Z,19.70
2022-09-27T02:24:15.766Z,21.67
2022-09-27T02:29:23.409Z,19.77
2022-09-27T02:34:33.284Z,19.45
2022-09-27T02:39:37.348Z,16.05
2022-09-27T02:44:44.572Z,16.63
2022-09-27T02:50:01.194Z,15.88
2022-09-27T02:55:30.356Z,16.83
2022-09-27T03:00:56.855Z,16.02
2022-09-27T03:06:22.288Z,17.10
2022-09-27T03:11:26.456Z,16.15
2022-09-27T03:16:30.541Z,15.27
2022-09-27T03:21:52.235Z,14.20
2022-09-27T03:26:56.155Z,12.93
2022-09-27T03:32:00.344Z,23.65
2022-09-27T03:37:27.163Z,20.67
2022-09-27T03:42:31.175Z,18.50
2022-09-27T03:47:35.227Z,18.40
2022-09-27T03:52:41.063Z,19.42
2022-09-27T03:57:47.304Z,19.05
2022-09-27T04:02:53.247Z,17.30
2022-09-27T04:08:01.203Z,17.20
2022-09-27T04:13:08.071Z,18.20
2022-09-27T04:18:18.440Z,16.55
2022-09-27T04:23:42.351Z,16.45
2022-09-27T04:28:54.503Z,15.13
2022-09-27T04:33:59.846Z,14.95
2022-09-27T04:39:11.380Z,15.77
2022-09-27T04:44:18.946Z,14.27
2022-09-27T04:49:26.899Z,14.40
2022-09-27T04:54:32.887Z,16.13
2022-09-27T05:04:51.467Z,20.00
2022-09-27T05:10:00.115Z,24.02
2022-09-27T05:20:11.504Z,41.47
2022-09-27T05:25:31.644Z,47.05
2022-09-27T05:30:36.461Z,55.15
2022-09-27T05:35:53.642Z,46.63
2022-09-27T05:41:01.431Z,41.92
2022-09-27T05:46:06.170Z,35.28
2022-09-27T05:51:11.259Z,32.20
2022-09-27T05:56:18.819Z,23.25
2022-09-27T06:01:45.234Z,20.85
2022-09-27T06:07:09.249Z,16.38
2022-09-27T06:12:14.573Z,14.32
2022-09-27T06:17:18.676Z,12.07
2022-09-27T06:22:25.065Z,11.43
2022-09-27T06:27:37.815Z,10.13
2022-09-27T06:32:49.470Z,9.45
2022-09-27T06:43:14.806Z,8.25
2022-09-27T06:48:44.492Z,8.82
2022-09-27T06:53:57.787Z,9.10
2022-09-27T06:59:20.819Z,9.27
2022-09-27T07:04:27.543Z,9.40
2022-09-27T07:10:00.616Z,10.13
2022-09-27T07:15:07.792Z,9.93
2022-09-27T07:20:12.906Z,10.35
2022-09-27T07:25:16.933Z,9.23
2022-09-27T07:30:23.564Z,9.10
2022-09-27T07:35:28.317Z,10.43
2022-09-27T07:40:32.298Z,9.93
2022-09-27T07:45:38.047Z,9.73
2022-09-27T07:50:47.988Z,9.77
2022-09-27T07:56:18.047Z,12.20
2022-09-27T08:01:23.892Z,9.32
2022-09-27T08:11:33.056Z,9.48
2022-09-27T08:16:39.753Z,9.63
2022-09-27T08:21:49.801Z,9.75
2022-09-27T08:27:00.151Z,9.48
2022-09-27T08:32:40.796Z,10.02
2022-09-27T08:37:45.612Z,9.95
2022-09-27T08:42:55.977Z,9.50
2022-09-27T08:48:02.958Z,10.45
2022-09-27T08:53:18.621Z,8.18
2022-09-27T08:58:27.528Z,9.50
2022-09-27T09:03:36.751Z,12.35
2022-09-27T09:08:53.151Z,8.27
2022-09-27T09:14:23.255Z,9.10
2022-09-27T09:19:40.974Z,7.80
2022-09-27T09:25:23.862Z,7.60
2022-09-27T09:30:31.313Z,7.43
2022-09-27T09:35:41.683Z,8.52
2022-09-27T09:40:48.633Z,7.95
2022-09-27T09:45:58.268Z,8.93
2022-09-27T09:51:10.297Z,8.50
2022-09-27T09:56:19.551Z,8.23
2022-09-27T10:01:27.804Z,9.93
2022-09-27T10:06:33.895Z,7.47
2022-09-27T10:11:42.086Z,9.32
2022-09-27T10:17:03.158Z,7.90
2022-09-27T10:22:17.721Z,6.32
2022-09-27T10:27:23.253Z,10.73
2022-09-27T10:32:31.429Z,6.65
2022-09-27T10:38:18.195Z,7.20
2022-09-27T10:43:30.500Z,12.80
2022-09-27T10:48:47.071Z,15.80
2022-09-27T10:53:53.051Z,7.68
2022-09-27T10:59:06.519Z,8.07
2022-09-27T11:04:22.342Z,8.65
2022-09-27T11:14:34.563Z,5.78
2022-09-27T11:19:55.867Z,5.82
2022-09-27T11:25:09.051Z,6.30
2022-09-27T11:30:18.599Z,7.75
2022-09-27T11:35:59.830Z,6.47
2022-09-27T11:41:17.749Z,6.28
2022-09-27T11:46:33.198Z,6.65
2022-09-27T11:52:05.438Z,6.50
2022-09-27T11:57:16.474Z,6.63
2022-09-27T12:02:33.381Z,7.63
2022-09-27T12:07:43.512Z,7.75
2022-09-27T12:12:54.620Z,7.68
2022-09-27T12:18:07.047Z,6.43
2022-09-27T12:23:18.427Z,10.55
2022-09-27T12:28:46.735Z,9.55
2022-09-27T12:33:57.871Z,7.70
2022-09-27T12:39:05.932Z,9.23
2022-09-27T12:44:14.154Z,7.63
2022-09-27T12:49:43.871Z,8.43
2022-09-27T12:55:24.090Z,9.57
2022-09-27T13:00:33.001Z,7.53
2022-09-27T13:05:52.243Z,41.33
2022-09-27T13:11:00.838Z,7.65
2022-09-27T13:16:11.548Z,8.65
2022-09-27T13:21:59.931Z,10.02
2022-09-27T13:27:43.796Z,9.98
2022-09-27T13:33:39.001Z,10.60
2022-09-27T13:38:57.769Z,13.25
2022-09-27T13:44:07.474Z,7.82
2022-09-27T13:49:23.353Z,8.27
2022-09-27T13:54:54.192Z,9.05
2022-09-27T14:00:05.207Z,7.10
2022-09-27T14:05:29.784Z,11.02
2022-09-27T14:10:36.299Z,10.82
2022-09-27T14:15:40.687Z,9.27
2022-09-27T14:20:46.174Z,9.68
2022-09-27T14:26:25.904Z,10.15
2022-09-27T14:31:29.918Z,8.27
2022-09-27T14:36:57.236Z,8.25
2022-09-27T14:42:08.121Z,10.67
2022-09-27T14:47:18.071Z,13.95
2022-09-27T14:52:27.932Z,9.48
2022-09-27T14:57:34.650Z,9.32
2022-09-27T15:02:38.487Z,9.13
2022-09-27T15:07:42.818Z,9.70
2022-09-27T15:12:50.323Z,9.27
2022-09-27T15:17:54.435Z,10.77
2022-09-27T15:22:59.214Z,11.93
2022-09-27T15:28:06.786Z,10.27
2022-09-27T15:33:20.331Z,13.13
2022-09-27T15:38:27.461Z,12.70
2022-09-27T15:43:35.084Z,10.60
2022-09-27T15:48:39.023Z,10.43
2022-09-27T15:53:45.036Z,10.73
2022-09-27T15:58:50.393Z,12.75
2022-09-27T16:03:54.276Z,10.40
2022-09-27T16:08:58.165Z,15.07
2022-09-27T16:14:03.544Z,11.13
2022-09-27T16:19:07.354Z,16.65
2022-09-27T16:24:11.706Z,11.05
2022-09-27T16:29:17.284Z,13.20
2022-09-27T16:34:21.515Z,12.52
2022-09-27T16:39:25.259Z,12.40
2022-09-27T16:44:30.378Z,12.23
2022-09-27T16:49:48.090Z,19.37
2022-09-27T16:54:51.934Z,12.40
2022-09-27T16:59:58.205Z,14.35
2022-09-27T17:05:02.028Z,13.57
2022-09-27T17:10:06.927Z,16.50
2022-09-27T17:15:12.211Z,14.55
2022-09-27T17:20:15.996Z,14.80
2022-09-27T17:25:19.837Z,19.70
2022-09-27T17:30:24.918Z,14.25
2022-09-27T17:35:28.670Z,16.87
2022-09-27T17:40:34.542Z,18.10
2022-09-27T17:45:39.821Z,15.52
2022-09-27T17:50:47.915Z,14.40
2022-09-27T17:55:53.183Z,12.57
2022-09-27T18:01:03.412Z,13.10
2022-09-27T18:06:08.146Z,12.50
2022-09-27T18:11:13.640Z,15.57
2022-09-27T18:16:20.053Z,17.08
2022-09-27T18:21:24.553Z,13.65
2022-09-27T18:26:30.107Z,14.38
2022-09-27T18:31:36.183Z,15.40
2022-09-27T18:36:42.391Z,13.90
2022-09-27T18:41:47.808Z,15.07
2022-09-27T18:46:53.159Z,13.95
2022-09-27T18:51:57.139Z,13.23
2022-09-27T18:57:00.898Z,14.95
2022-09-27T19:02:06.266Z,12.90
2022-09-27T19:07:10.220Z,15.65
2022-09-27T19:12:14.151Z,15.73
2022-09-27T19:17:19.355Z,16.52
2022-09-27T19:22:23.388Z,12.83
2022-09-27T19:27:27.070Z,7.00
2022-09-27T19:32:32.106Z,9.73
2022-09-27T19:37:35.958Z,7.67
2022-09-27T19:42:39.640Z,6.65
2022-09-27T19:47:44.696Z,8.80
2022-09-27T19:52:48.939Z,15.00
2022-09-27T19:57:52.737Z,16.80
2022-09-27T20:02:57.980Z,11.95
2022-09-27T20:08:02.345Z,36.13
2022-09-27T20:13:06.038Z,56.78
2022-09-27T20:18:11.956Z,80.50
2022-09-27T20:23:19.997Z,106.95
2022-09-27T20:28:23.895Z,155.85
2022-09-27T20:33:46.641Z,227.88
2022-09-27T20:38:51.596Z,266.58
2022-09-27T20:43:56.545Z,357.35
2022-09-27T20:49:03.640Z,296.88
2022-09-27T20:54:09.066Z,290.13
2022-09-27T20:59:16.637Z,318.20
2022-09-27T21:04:23.523Z,308.98
2022-09-27T21:09:27.387Z,278.50
2022-09-27T21:14:31.261Z,317.70
2022-09-27T21:19:36.451Z,293.52
2022-09-27T21:24:40.179Z,275.88
2022-09-27T21:29:43.853Z,263.15
2022-09-27T21:34:48.931Z,267.20
2022-09-27T21:39:52.776Z,295.10
2022-09-27T21:44:56.518Z,307.70
2022-09-27T21:50:01.595Z,292.67
2022-09-27T21:55:06.579Z,284.58
2022-09-27T22:00:11.797Z,284.52
2022-09-27T22:05:17.068Z,290.95
2022-09-27T22:10:20.850Z,279.87
2022-09-27T22:15:24.529Z,284.70
2022-09-27T22:20:29.631Z,287.55
2022-09-27T22:25:33.422Z,282.60
2022-09-27T22:30:37.120Z,262.52
2022-09-27T22:35:48.128Z,210.15
2022-09-27T22:40:56.393Z,243.90
2022-09-27T22:46:01.397Z,247.45
2022-09-27T22:51:07.875Z,217.40
2022-09-27T22:56:15.317Z,229.75
2022-09-27T23:01:20.941Z,201.75
2022-09-27T23:06:47.087Z,178.13
2022-09-27T23:12:17.083Z,181.15
2022-09-27T23:17:47.091Z,204.05
2022-09-27T23:22:59.301Z,251.02
2022-09-27T23:28:03.302Z,250.70
2022-09-27T23:33:08.426Z,223.32
2022-09-27T23:38:13.996Z,228.65
2022-09-27T23:43:17.853Z,225.88
2022-09-27T23:48:21.683Z,189.00
2022-09-27T23:53:26.952Z,154.10
2022-09-27T23:58:33.281Z,139.07
